sensor_id;sensor_type;location;lat;lon;timestamp;pressure;altitude;pressure_sealevel;temperature;humidity
38227;BME280;24026;49.446;8.576;2023-04-26T00:01:30;100673.66;;;15.30;41.48
38227;BME280;24026;49.446;8.576;2023-04-26T00:03:50;100663.75;;;15.30;41.43
38227;BME280;24026;49.446;8.576;2023-04-26T00:06:10;100670.97;;;15.30;41.44
38227;BME280;24026;49.446;8.576;2023-04-26T00:08:33;100673.91;;;15.28;41.61
38227;BME280;24026;49.446;8.576;2023-04-26T00:10:53;100669.38;;;15.29;41.39
38227;BME280;24026;49.446;8.576;2023-04-26T00:13:14;100669.38;;;15.29;41.46
38227;BME280;24026;49.446;8.576;2023-04-26T00:15:34;100671.50;;;15.27;41.56
38227;BME280;24026;49.446;8.576;2023-04-26T00:17:54;100668.03;;;15.26;41.45
38227;BME280;24026;49.446;8.576;2023-04-26T00:20:15;100665.34;;;15.26;41.48
38227;BME280;24026;49.446;8.576;2023-04-26T00:22:35;100670.69;;;15.26;41.44
38227;BME280;24026;49.446;8.576;2023-04-26T00:24:55;100675.53;;;15.24;41.53
38227;BME280;24026;49.446;8.576;2023-04-26T00:27:16;100673.91;;;15.23;41.58
38227;BME280;24026;49.446;8.576;2023-04-26T00:29:36;100673.91;;;15.23;41.50
38227;BME280;24026;49.446;8.576;2023-04-26T00:31:56;100679.25;;;15.23;41.66
38227;BME280;24026;49.446;8.576;2023-04-26T00:34:17;100673.91;;;15.23;41.59
38227;BME280;24026;49.446;8.576;2023-04-26T00:36:37;100671.50;;;15.22;41.57
38227;BME280;24026;49.446;8.576;2023-04-26T00:38:57;100674.16;;;15.22;41.53
38227;BME280;24026;49.446;8.576;2023-04-26T00:41:18;100670.97;;;15.19;41.65
38227;BME280;24026;49.446;8.576;2023-04-26T00:43:38;100670.97;;;15.19;41.57
38227;BME280;24026;49.446;8.576;2023-04-26T00:45:59;100670.16;;;15.19;41.61
38227;BME280;24026;49.446;8.576;2023-04-26T00:48:20;100669.91;;;15.15;41.94
38227;BME280;24026;49.446;8.576;2023-04-26T00:50:40;100672.31;;;15.17;41.71
38227;BME280;24026;49.446;8.576;2023-04-26T00:53:01;100669.63;;;15.17;41.69
38227;BME280;24026;49.446;8.576;2023-04-26T00:55:21;100675.25;;;15.15;41.85
38227;BME280;24026;49.446;8.576;2023-04-26T00:57:42;100677.91;;;15.15;41.80
38227;BME280;24026;49.446;8.576;2023-04-26T01:00:03;100675.50;;;15.14;41.69
38227;BME280;24026;49.446;8.576;2023-04-26T01:02:24;100678.19;;;15.14;41.82
38227;BME280;24026;49.446;8.576;2023-04-26T01:04:44;100674.97;;;15.12;41.73
38227;BME280;24026;49.446;8.576;2023-04-26T01:07:05;100677.66;;;15.12;41.76
38227;BME280;24026;49.446;8.576;2023-04-26T01:09:25;100681.66;;;15.09;41.91
38227;BME280;24026;49.446;8.576;2023-04-26T01:11:45;100680.84;;;15.09;41.81
38227;BME280;24026;49.446;8.576;2023-04-26T01:14:06;100675.50;;;15.09;42.02
38227;BME280;24026;49.446;8.576;2023-04-26T01:16:27;100679.75;;;15.10;41.82
38227;BME280;24026;49.446;8.576;2023-04-26T01:18:51;100676.56;;;15.08;41.85
38227;BME280;24026;49.446;8.576;2023-04-26T01:21:11;100678.19;;;15.09;41.81
38227;BME280;24026;49.446;8.576;2023-04-26T01:23:33;100678.69;;;15.06;41.85
38227;BME280;24026;49.446;8.576;2023-04-26T01:25:53;100676.03;;;15.06;41.99
38227;BME280;24026;49.446;8.576;2023-04-26T01:28:15;100676.28;;;15.04;41.87
38227;BME280;24026;49.446;8.576;2023-04-26T01:30:35;100677.34;;;15.03;41.86
38227;BME280;24026;49.446;8.576;2023-04-26T01:32:55;100673.06;;;15.02;41.90
38227;BME280;24026;49.446;8.576;2023-04-26T01:35:16;100673.34;;;15.00;42.00
38227;BME280;24026;49.446;8.576;2023-04-26T01:37:36;100667.97;;;15.00;41.80
38227;BME280;24026;49.446;8.576;2023-04-26T01:39:56;100667.97;;;15.00;41.82
38227;BME280;24026;49.446;8.576;2023-04-26T01:42:17;100664.78;;;14.98;41.86
38227;BME280;24026;49.446;8.576;2023-04-26T01:44:37;100668.50;;;14.97;41.84
38227;BME280;24026;49.446;8.576;2023-04-26T01:46:58;100665.84;;;14.97;41.84
38227;BME280;24026;49.446;8.576;2023-04-26T01:49:18;100666.34;;;14.94;41.89
38227;BME280;24026;49.446;8.576;2023-04-26T01:51:39;100670.66;;;14.95;41.80
38227;BME280;24026;49.446;8.576;2023-04-26T01:53:59;100668.22;;;14.94;41.94
38227;BME280;24026;49.446;8.576;2023-04-26T01:56:19;100665.81;;;14.92;41.84
38227;BME280;24026;49.446;8.576;2023-04-26T01:58:39;100666.63;;;14.93;41.93
38227;BME280;24026;49.446;8.576;2023-04-26T02:01:04;100662.34;;;14.92;41.89
38227;BME280;24026;49.446;8.576;2023-04-26T02:03:24;100658.06;;;14.91;41.87
38227;BME280;24026;49.446;8.576;2023-04-26T02:05:45;100654.84;;;14.89;41.97
38227;BME280;24026;49.446;8.576;2023-04-26T02:08:05;100659.63;;;14.87;41.94
38227;BME280;24026;49.446;8.576;2023-04-26T02:10:25;100661.25;;;14.88;41.97
38227;BME280;24026;49.446;8.576;2023-04-26T02:12:46;100659.91;;;14.85;41.91
38227;BME280;24026;49.446;8.576;2023-04-26T02:15:07;100667.94;;;14.85;41.89
38227;BME280;24026;49.446;8.576;2023-04-26T02:17:27;100673.31;;;14.85;41.99
38227;BME280;24026;49.446;8.576;2023-04-26T02:19:48;100666.59;;;14.82;42.05
38227;BME280;24026;49.446;8.576;2023-04-26T02:22:08;100659.63;;;14.81;41.95
38227;BME280;24026;49.446;8.576;2023-04-26T02:24:28;100672.19;;;14.81;42.00
38227;BME280;24026;49.446;8.576;2023-04-26T02:26:49;100670.59;;;14.80;42.00
38227;BME280;24026;49.446;8.576;2023-04-26T02:29:09;100660.97;;;14.79;41.95
38227;BME280;24026;49.446;8.576;2023-04-26T02:31:29;100668.19;;;14.78;41.92
38227;BME280;24026;49.446;8.576;2023-04-26T02:33:49;100669.78;;;14.79;42.04
38227;BME280;24026;49.446;8.576;2023-04-26T02:36:10;100672.72;;;14.78;42.04
38227;BME280;24026;49.446;8.576;2023-04-26T02:38:34;100674.06;;;14.75;42.10
38227;BME280;24026;49.446;8.576;2023-04-26T02:40:58;100670.56;;;14.75;41.98
38227;BME280;24026;49.446;8.576;2023-04-26T02:43:18;100670.56;;;14.75;42.01
38227;BME280;24026;49.446;8.576;2023-04-26T02:45:42;100679.69;;;14.74;42.03
38227;BME280;24026;49.446;8.576;2023-04-26T02:48:02;100675.38;;;14.73;42.03
38227;BME280;24026;49.446;8.576;2023-04-26T02:50:23;100671.91;;;14.72;42.07
38227;BME280;24026;49.446;8.576;2023-04-26T02:52:43;100665.19;;;14.70;42.05
38227;BME280;24026;49.446;8.576;2023-04-26T02:55:03;100672.69;;;14.68;42.08
38227;BME280;24026;49.446;8.576;2023-04-26T02:57:24;100667.34;;;14.68;42.00
38227;BME280;24026;49.446;8.576;2023-04-26T02:59:44;100669.22;;;14.67;42.10
38227;BME280;24026;49.446;8.576;2023-04-26T03:02:04;100667.84;;;14.64;42.14
38227;BME280;24026;49.446;8.576;2023-04-26T03:04:24;100667.84;;;14.64;42.15
38227;BME280;24026;49.446;8.576;2023-04-26T03:06:45;100673.22;;;14.64;42.09
38227;BME280;24026;49.446;8.576;2023-04-26T03:09:05;100680.44;;;14.64;42.12
38227;BME280;24026;49.446;8.576;2023-04-26T03:11:25;100679.91;;;14.62;42.01
38227;BME280;24026;49.446;8.576;2023-04-26T03:13:46;100679.91;;;14.62;42.02
38227;BME280;24026;49.446;8.576;2023-04-26T03:16:06;100678.75;;;14.58;42.18
38227;BME280;24026;49.446;8.576;2023-04-26T03:18:26;100677.75;;;14.59;42.12
38227;BME280;24026;49.446;8.576;2023-04-26T03:20:47;100679.59;;;14.58;42.05
38227;BME280;24026;49.446;8.576;2023-04-26T03:23:07;100677.97;;;14.57;42.03
38227;BME280;24026;49.446;8.576;2023-04-26T03:25:27;100676.09;;;14.58;42.14
38227;BME280;24026;49.446;8.576;2023-04-26T03:27:48;100669.41;;;14.55;42.10
38227;BME280;24026;49.446;8.576;2023-04-26T03:30:08;100674.75;;;14.55;42.13
38227;BME280;24026;49.446;8.576;2023-04-26T03:32:28;100675.81;;;14.54;42.09
38227;BME280;24026;49.446;8.576;2023-04-26T03:34:49;100672.59;;;14.52;41.99
38227;BME280;24026;49.446;8.576;2023-04-26T03:37:09;100682.50;;;14.52;42.09
38227;BME280;24026;49.446;8.576;2023-04-26T03:39:30;100680.63;;;14.52;42.01
38227;BME280;24026;49.446;8.576;2023-04-26T03:41:50;100685.19;;;14.52;42.23
38227;BME280;24026;49.446;8.576;2023-04-26T03:44:11;100674.75;;;14.50;41.89
38227;BME280;24026;49.446;8.576;2023-04-26T03:46:31;100674.75;;;14.50;41.96
38227;BME280;24026;49.446;8.576;2023-04-26T03:48:51;100672.56;;;14.47;42.14
38227;BME280;24026;49.446;8.576;2023-04-26T03:51:11;100685.94;;;14.47;42.17
38227;BME280;24026;49.446;8.576;2023-04-26T03:53:32;100679.78;;;14.46;42.12
38227;BME280;24026;49.446;8.576;2023-04-26T03:55:52;100673.88;;;14.44;42.11
38227;BME280;24026;49.446;8.576;2023-04-26T03:58:12;100673.09;;;14.44;42.12
38227;BME280;24026;49.446;8.576;2023-04-26T04:00:36;100670.41;;;14.44;41.98
38227;BME280;24026;49.446;8.576;2023-04-26T04:02:56;100668.81;;;14.43;42.03
38227;BME280;24026;49.446;8.576;2023-04-26T04:05:17;100671.47;;;14.43;42.03
38227;BME280;24026;49.446;8.576;2023-04-26T04:07:37;100661.88;;;14.42;42.00
38227;BME280;24026;49.446;8.576;2023-04-26T04:09:58;100663.16;;;14.39;41.99
38227;BME280;24026;49.446;8.576;2023-04-26T04:12:18;100667.72;;;14.39;41.97
38227;BME280;24026;49.446;8.576;2023-04-26T04:14:38;100669.84;;;14.37;42.07
38227;BME280;24026;49.446;8.576;2023-04-26T04:16:59;100667.97;;;14.37;42.04
38227;BME280;24026;49.446;8.576;2023-04-26T04:19:19;100665.31;;;14.37;41.90
38227;BME280;24026;49.446;8.576;2023-04-26T04:21:40;100670.91;;;14.36;41.96
38227;BME280;24026;49.446;8.576;2023-04-26T04:24:02;100672.53;;;14.37;41.91
38227;BME280;24026;49.446;8.576;2023-04-26T04:26:22;100670.91;;;14.36;41.96
38227;BME280;24026;49.446;8.576;2023-04-26T04:28:43;100673.03;;;14.34;41.89
38227;BME280;24026;49.446;8.576;2023-04-26T04:31:04;100677.56;;;14.33;42.00
38227;BME280;24026;49.446;8.576;2023-04-26T04:33:24;100682.13;;;14.33;42.06
38227;BME280;24026;49.446;8.576;2023-04-26T04:35:47;100675.97;;;14.32;41.97
38227;BME280;24026;49.446;8.576;2023-04-26T04:38:07;100684.25;;;14.31;42.08
38227;BME280;24026;49.446;8.576;2023-04-26T04:40:28;100689.59;;;14.31;42.04
38227;BME280;24026;49.446;8.576;2023-04-26T04:42:49;100694.16;;;14.30;41.99
38227;BME280;24026;49.446;8.576;2023-04-26T04:45:09;100694.41;;;14.29;42.04
38227;BME280;24026;49.446;8.576;2023-04-26T04:47:30;100695.22;;;14.29;41.95
38227;BME280;24026;49.446;8.576;2023-04-26T04:49:50;100697.09;;;14.29;41.93
38227;BME280;24026;49.446;8.576;2023-04-26T04:52:12;100703.47;;;14.27;41.94
38227;BME280;24026;49.446;8.576;2023-04-26T04:54:33;100703.47;;;14.27;41.90
38227;BME280;24026;49.446;8.576;2023-04-26T04:56:54;100703.47;;;14.27;41.96
38227;BME280;24026;49.446;8.576;2023-04-26T04:59:14;100702.47;;;14.34;41.79
38227;BME280;24026;49.446;8.576;2023-04-26T05:01:34;100703.34;;;14.50;41.54
38227;BME280;24026;49.446;8.576;2023-04-26T05:03:56;100710.41;;;14.66;41.14
38227;BME280;24026;49.446;8.576;2023-04-26T05:06:18;100717.16;;;14.84;40.80
38227;BME280;24026;49.446;8.576;2023-04-26T05:08:38;100721.78;;;14.99;40.46
38227;BME280;24026;49.446;8.576;2023-04-26T05:10:59;100720.50;;;15.17;40.03
38227;BME280;24026;49.446;8.576;2023-04-26T05:13:19;100720.53;;;15.32;39.79
38227;BME280;24026;49.446;8.576;2023-04-26T05:15:41;100717.59;;;15.44;39.65
38227;BME280;24026;49.446;8.576;2023-04-26T05:18:01;100717.88;;;15.58;39.37
38227;BME280;24026;49.446;8.576;2023-04-26T05:20:21;100724.84;;;15.69;39.07
38227;BME280;24026;49.446;8.576;2023-04-26T05:22:42;100726.75;;;15.79;39.34
38227;BME280;24026;49.446;8.576;2023-04-26T05:25:04;100728.31;;;15.75;39.27
38227;BME280;24026;49.446;8.576;2023-04-26T05:27:27;100723.28;;;15.89;39.03
38227;BME280;24026;49.446;8.576;2023-04-26T05:29:47;100729.69;;;16.03;38.61
38227;BME280;24026;49.446;8.576;2023-04-26T05:32:09;100740.94;;;16.21;38.22
38227;BME280;24026;49.446;8.576;2023-04-26T05:34:30;100730.97;;;16.37;37.84
38227;BME280;24026;49.446;8.576;2023-04-26T05:36:51;100732.31;;;16.49;37.65
38227;BME280;24026;49.446;8.576;2023-04-26T05:39:11;100736.00;;;16.59;37.42
38227;BME280;24026;49.446;8.576;2023-04-26T05:41:31;100741.09;;;16.65;37.17
38227;BME280;24026;49.446;8.576;2023-04-26T05:43:52;100740.31;;;16.65;37.18
38227;BME280;24026;49.446;8.576;2023-04-26T05:46:12;100744.91;;;16.54;37.58
38227;BME280;24026;49.446;8.576;2023-04-26T05:48:34;100745.19;;;16.47;37.59
38227;BME280;24026;49.446;8.576;2023-04-26T05:50:55;100743.84;;;16.45;37.87
38227;BME280;24026;49.446;8.576;2023-04-26T05:53:18;100737.44;;;16.41;37.90
38227;BME280;24026;49.446;8.576;2023-04-26T05:55:40;100733.66;;;16.37;38.16
38227;BME280;24026;49.446;8.576;2023-04-26T05:58:01;100748.19;;;16.30;38.08
38227;BME280;24026;49.446;8.576;2023-04-26T06:00:21;100750.59;;;16.22;38.24
38227;BME280;24026;49.446;8.576;2023-04-26T06:02:42;100744.97;;;16.13;38.22
38227;BME280;24026;49.446;8.576;2023-04-26T06:05:03;100758.13;;;16.04;38.48
38227;BME280;24026;49.446;8.576;2023-04-26T06:07:25;100757.59;;;15.97;38.50
38227;BME280;24026;49.446;8.576;2023-04-26T06:09:46;100762.66;;;15.99;38.48
38227;BME280;24026;49.446;8.576;2023-04-26T06:12:07;100759.19;;;15.98;38.59
38227;BME280;24026;49.446;8.576;2023-04-26T06:14:28;100763.47;;;15.99;38.44
38227;BME280;24026;49.446;8.576;2023-04-26T06:16:48;100765.06;;;16.00;38.34
38227;BME280;24026;49.446;8.576;2023-04-26T06:19:08;100765.91;;;16.01;38.43
38227;BME280;24026;49.446;8.576;2023-04-26T06:21:28;100771.78;;;15.98;38.70
38227;BME280;24026;49.446;8.576;2023-04-26T06:23:49;100771.25;;;15.96;38.59
38227;BME280;24026;49.446;8.576;2023-04-26T06:26:09;100768.59;;;15.96;38.57
38227;BME280;24026;49.446;8.576;2023-04-26T06:28:29;100772.06;;;15.96;38.74
38227;BME280;24026;49.446;8.576;2023-04-26T06:30:49;100772.84;;;15.97;38.63
38227;BME280;24026;49.446;8.576;2023-04-26T06:33:10;100768.03;;;15.93;38.66
38227;BME280;24026;49.446;8.576;2023-04-26T06:35:30;100770.16;;;15.91;38.79
38227;BME280;24026;49.446;8.576;2023-04-26T06:37:50;100774.22;;;15.94;38.82
38227;BME280;24026;49.446;8.576;2023-04-26T06:40:11;100767.75;;;15.95;38.63
38227;BME280;24026;49.446;8.576;2023-04-26T06:42:34;100768.03;;;15.99;38.57
38227;BME280;24026;49.446;8.576;2023-04-26T06:44:55;100769.91;;;15.98;38.68
38227;BME280;24026;49.446;8.576;2023-04-26T06:47:16;100766.44;;;15.98;38.80
38227;BME280;24026;49.446;8.576;2023-04-26T06:49:36;100763.75;;;15.98;38.85
38227;BME280;24026;49.446;8.576;2023-04-26T06:51:57;100764.28;;;16.00;38.72
38227;BME280;24026;49.446;8.576;2023-04-26T06:54:17;100755.19;;;16.01;38.67
38227;BME280;24026;49.446;8.576;2023-04-26T06:56:38;100757.59;;;16.02;38.60
38227;BME280;24026;49.446;8.576;2023-04-26T06:59:04;100758.38;;;16.03;38.75
38227;BME280;24026;49.446;8.576;2023-04-26T07:01:26;100759.19;;;16.03;39.01
38227;BME280;24026;49.446;8.576;2023-04-26T07:03:48;100758.91;;;16.05;39.03
38227;BME280;24026;49.446;8.576;2023-04-26T07:06:09;100757.03;;;16.05;39.03
38227;BME280;24026;49.446;8.576;2023-04-26T07:08:31;100748.97;;;16.05;39.06
38227;BME280;24026;49.446;8.576;2023-04-26T07:11:08;100747.91;;;16.06;38.90
38227;BME280;24026;49.446;8.576;2023-04-26T07:13:28;100751.41;;;16.07;38.95
38227;BME280;24026;49.446;8.576;2023-04-26T07:15:48;100749.28;;;16.09;38.97
38227;BME280;24026;49.446;8.576;2023-04-26T07:18:09;100741.22;;;16.09;39.04
38227;BME280;24026;49.446;8.576;2023-04-26T07:20:31;100743.09;;;16.08;39.12
38227;BME280;24026;49.446;8.576;2023-04-26T07:22:52;100749.00;;;16.10;39.04
38227;BME280;24026;49.446;8.576;2023-04-26T07:25:12;100751.41;;;16.12;39.12
38227;BME280;24026;49.446;8.576;2023-04-26T07:27:32;100751.13;;;16.14;39.00
38227;BME280;24026;49.446;8.576;2023-04-26T07:29:53;100748.19;;;16.15;39.05
38227;BME280;24026;49.446;8.576;2023-04-26T07:32:15;100746.06;;;16.17;39.12
38227;BME280;24026;49.446;8.576;2023-04-26T07:34:35;100749.53;;;16.18;38.92
38227;BME280;24026;49.446;8.576;2023-04-26T07:36:55;100744.69;;;16.20;38.79
38227;BME280;24026;49.446;8.576;2023-04-26T07:39:16;100745.50;;;16.20;38.86
38227;BME280;24026;49.446;8.576;2023-04-26T07:41:37;100750.59;;;16.22;38.93
38227;BME280;24026;49.446;8.576;2023-04-26T07:43:57;100738.78;;;16.23;38.94
38227;BME280;24026;49.446;8.576;2023-04-26T07:46:18;100749.25;;;16.24;38.94
38227;BME280;24026;49.446;8.576;2023-04-26T07:48:38;100753.53;;;16.25;38.94
38227;BME280;24026;49.446;8.576;2023-04-26T07:51:09;100748.97;;;16.26;38.88
38227;BME280;24026;49.446;8.576;2023-04-26T07:53:29;100751.41;;;16.27;38.87
38227;BME280;24026;49.446;8.576;2023-04-26T07:55:51;100756.22;;;16.30;38.91
38227;BME280;24026;49.446;8.576;2023-04-26T07:58:11;100752.19;;;16.33;38.73
38227;BME280;24026;49.446;8.576;2023-04-26T08:00:33;100748.44;;;16.34;38.79
38227;BME280;24026;49.446;8.576;2023-04-26T08:02:57;100752.72;;;16.35;38.73
38227;BME280;24026;49.446;8.576;2023-04-26T08:05:17;100750.59;;;16.37;38.83
38227;BME280;24026;49.446;8.576;2023-04-26T08:07:38;100751.09;;;16.39;38.74
38227;BME280;24026;49.446;8.576;2023-04-26T08:09:58;100755.38;;;16.40;38.78
38227;BME280;24026;49.446;8.576;2023-04-26T08:12:19;100746.28;;;16.41;38.75
38227;BME280;24026;49.446;8.576;2023-04-26T08:14:39;100740.91;;;16.41;38.99
38227;BME280;24026;49.446;8.576;2023-04-26T08:17:00;100751.13;;;16.34;38.77
38227;BME280;24026;49.446;8.576;2023-04-26T08:19:20;100746.56;;;16.24;38.53
38227;BME280;24026;49.446;8.576;2023-04-26T08:21:41;100759.19;;;16.24;38.35
38227;BME280;24026;49.446;8.576;2023-04-26T08:24:01;100746.56;;;16.24;38.17
38227;BME280;24026;49.446;8.576;2023-04-26T08:26:22;100755.94;;;16.27;38.20
38227;BME280;24026;49.446;8.576;2023-04-26T08:28:43;100751.94;;;16.29;38.08
38227;BME280;24026;49.446;8.576;2023-04-26T08:31:03;100749.78;;;16.32;37.87
38227;BME280;24026;49.446;8.576;2023-04-26T08:33:24;100749.50;;;16.33;38.10
38227;BME280;24026;49.446;8.576;2023-04-26T08:35:45;100755.38;;;16.35;38.23
38227;BME280;24026;49.446;8.576;2023-04-26T08:38:05;100754.59;;;16.40;37.98
38227;BME280;24026;49.446;8.576;2023-04-26T08:40:26;100754.31;;;16.41;37.86
38227;BME280;24026;49.446;8.576;2023-04-26T08:42:46;100752.69;;;16.45;37.70
38227;BME280;24026;49.446;8.576;2023-04-26T08:45:07;100738.72;;;16.48;37.66
38227;BME280;24026;49.446;8.576;2023-04-26T08:47:42;100735.50;;;16.52;37.62
38227;BME280;24026;49.446;8.576;2023-04-26T08:50:06;100734.97;;;16.55;37.57
38227;BME280;24026;49.446;8.576;2023-04-26T08:52:29;100737.91;;;16.58;37.52
38227;BME280;24026;49.446;8.576;2023-04-26T08:54:49;100733.88;;;16.61;37.40
38227;BME280;24026;49.446;8.576;2023-04-26T08:57:11;100738.97;;;16.62;37.39
38227;BME280;24026;49.446;8.576;2023-04-26T08:59:32;100731.97;;;16.66;37.53
38227;BME280;24026;49.446;8.576;2023-04-26T09:01:52;100732.78;;;16.67;37.66
38227;BME280;24026;49.446;8.576;2023-04-26T09:04:13;100739.22;;;16.71;37.26
38227;BME280;24026;49.446;8.576;2023-04-26T09:06:34;100733.31;;;16.74;37.53
38227;BME280;24026;49.446;8.576;2023-04-26T09:08:56;100731.13;;;16.76;37.53
38227;BME280;24026;49.446;8.576;2023-04-26T09:11:16;100729.00;;;16.73;37.86
38227;BME280;24026;49.446;8.576;2023-04-26T09:13:37;100718.28;;;16.68;37.93
38227;BME280;24026;49.446;8.576;2023-04-26T09:15:57;100717.75;;;16.66;37.54
38227;BME280;24026;49.446;8.576;2023-04-26T09:18:18;100725.28;;;16.64;37.63
38227;BME280;24026;49.446;8.576;2023-04-26T09:20:39;100723.69;;;16.63;36.71
38227;BME280;24026;49.446;8.576;2023-04-26T09:23:03;100725.28;;;16.64;36.96
38227;BME280;24026;49.446;8.576;2023-04-26T09:25:27;100722.59;;;16.64;36.61
38227;BME280;24026;49.446;8.576;2023-04-26T09:27:49;100718.28;;;16.68;36.90
38227;BME280;24026;49.446;8.576;2023-04-26T09:30:13;100716.13;;;16.70;36.76
38227;BME280;24026;49.446;8.576;2023-04-26T09:32:49;100726.56;;;16.77;36.55
38227;BME280;24026;49.446;8.576;2023-04-26T09:37:50;100716.09;;;16.80;36.81
38227;BME280;24026;49.446;8.576;2023-04-26T09:40:16;100720.38;;;16.81;36.69
38227;BME280;24026;49.446;8.576;2023-04-26T09:42:38;100718.50;;;16.82;36.60
38227;BME280;24026;49.446;8.576;2023-04-26T09:45:08;100718.22;;;16.83;36.52
38227;BME280;24026;49.446;8.576;2023-04-26T09:47:29;100720.38;;;16.87;36.55
38227;BME280;24026;49.446;8.576;2023-04-26T09:49:50;100726.56;;;16.87;36.71
38227;BME280;24026;49.446;8.576;2023-04-26T09:52:10;100724.69;;;16.88;36.93
38227;BME280;24026;49.446;8.576;2023-04-26T09:54:42;100722.00;;;16.88;36.70
38227;BME280;24026;49.446;8.576;2023-04-26T09:57:03;100724.16;;;16.91;36.86
38227;BME280;24026;49.446;8.576;2023-04-26T09:59:23;100715.78;;;16.92;36.82
38227;BME280;24026;49.446;8.576;2023-04-26T10:01:43;100718.47;;;16.92;36.78
38227;BME280;24026;49.446;8.576;2023-04-26T10:04:04;100711.75;;;16.95;36.69
38227;BME280;24026;49.446;8.576;2023-04-26T10:06:26;100713.66;;;16.94;36.78
38227;BME280;24026;49.446;8.576;2023-04-26T10:08:47;100707.75;;;16.97;36.71
38227;BME280;24026;49.446;8.576;2023-04-26T10:11:08;100713.91;;;16.98;36.67
38227;BME280;24026;49.446;8.576;2023-04-26T10:13:31;100709.84;;;17.00;36.49
38227;BME280;24026;49.446;8.576;2023-04-26T10:15:52;100703.41;;;17.01;36.74
38227;BME280;24026;49.446;8.576;2023-04-26T10:18:13;100694.56;;;17.01;36.15
38227;BME280;24026;49.446;8.576;2023-04-26T10:20:33;100705.84;;;16.98;36.40
38227;BME280;24026;49.446;8.576;2023-04-26T10:22:58;100709.34;;;16.93;34.60
38227;BME280;24026;49.446;8.576;2023-04-26T10:25:21;100702.94;;;16.84;34.33
38227;BME280;24026;49.446;8.576;2023-04-26T10:27:53;100696.75;;;16.83;33.61
38227;BME280;24026;49.446;8.576;2023-04-26T10:30:15;100695.44;;;16.81;33.38
38227;BME280;24026;49.446;8.576;2023-04-26T10:35:15;100696.75;;;16.83;33.84
38227;BME280;24026;49.446;8.576;2023-04-26T10:37:40;100694.06;;;16.83;33.70
38227;BME280;24026;49.446;8.576;2023-04-26T10:40:23;100698.91;;;16.87;33.93
38227;BME280;24026;49.446;8.576;2023-04-26T10:42:44;100697.31;;;16.91;34.39
38227;BME280;24026;49.446;8.576;2023-04-26T10:45:25;100692.44;;;16.93;34.33
38227;BME280;24026;49.446;8.576;2023-04-26T10:47:46;100690.28;;;16.95;34.02
38227;BME280;24026;49.446;8.576;2023-04-26T10:50:10;100689.22;;;16.96;33.96
38227;BME280;24026;49.446;8.576;2023-04-26T10:52:30;100697.00;;;16.97;34.00
38227;BME280;24026;49.446;8.576;2023-04-26T10:54:52;100685.16;;;16.98;34.37
38227;BME280;24026;49.446;8.576;2023-04-26T10:57:13;100684.09;;;16.99;34.28
38227;BME280;24026;49.446;8.576;2023-04-26T10:59:34;100682.19;;;17.00;34.72
38227;BME280;24026;49.446;8.576;2023-04-26T11:01:55;100684.63;;;17.01;34.70
38227;BME280;24026;49.446;8.576;2023-04-26T11:04:20;100673.88;;;17.01;34.55
38227;BME280;24026;49.446;8.576;2023-04-26T11:06:50;100665.25;;;17.04;34.54
38227;BME280;24026;49.446;8.576;2023-04-26T11:11:50;100655.00;;;17.12;34.26
38227;BME280;24026;49.446;8.576;2023-04-26T11:14:14;100653.66;;;17.14;34.35
38227;BME280;24026;49.446;8.576;2023-04-26T11:16:35;100657.66;;;17.17;34.30
38227;BME280;24026;49.446;8.576;2023-04-26T11:18:57;100658.47;;;17.17;33.85
38227;BME280;24026;49.446;8.576;2023-04-26T11:21:18;100649.06;;;17.20;34.32
38227;BME280;24026;49.446;8.576;2023-04-26T11:23:40;100648.72;;;17.27;34.20
38227;BME280;24026;49.446;8.576;2023-04-26T11:26:01;100648.69;;;17.32;34.30
38227;BME280;24026;49.446;8.576;2023-04-26T11:28:22;100641.75;;;17.31;33.67
38227;BME280;24026;49.446;8.576;2023-04-26T11:30:43;100645.16;;;17.36;33.85
38227;BME280;24026;49.446;8.576;2023-04-26T11:33:04;100639.28;;;17.34;34.04
38227;BME280;24026;49.446;8.576;2023-04-26T11:35:24;100631.50;;;17.33;34.01
38227;BME280;24026;49.446;8.576;2023-04-26T11:37:45;100627.19;;;17.32;34.27
38227;BME280;24026;49.446;8.576;2023-04-26T11:40:08;100627.97;;;17.37;33.98
38227;BME280;24026;49.446;8.576;2023-04-26T11:42:29;100622.28;;;17.44;33.74
38227;BME280;24026;49.446;8.576;2023-04-26T11:44:50;100617.19;;;17.43;34.09
38227;BME280;24026;49.446;8.576;2023-04-26T11:47:11;100621.47;;;17.44;33.81
38227;BME280;24026;49.446;8.576;2023-04-26T11:49:31;100620.16;;;17.41;34.01
38227;BME280;24026;49.446;8.576;2023-04-26T11:51:52;100614.56;;;17.32;32.68
38227;BME280;24026;49.446;8.576;2023-04-26T11:54:25;100616.38;;;17.08;31.61
38227;BME280;24026;49.446;8.576;2023-04-26T11:56:47;100613.47;;;17.04;31.63
38227;BME280;24026;49.446;8.576;2023-04-26T11:59:07;100609.88;;;17.14;31.35
38227;BME280;24026;49.446;8.576;2023-04-26T12:01:28;100613.34;;;17.19;31.74
38227;BME280;24026;49.446;8.576;2023-04-26T12:03:49;100619.47;;;17.25;31.59
38227;BME280;24026;49.446;8.576;2023-04-26T12:06:10;100618.88;;;17.33;31.88
38227;BME280;24026;49.446;8.576;2023-04-26T12:08:31;100609.19;;;17.37;32.12
38227;BME280;24026;49.446;8.576;2023-04-26T12:10:52;100610.47;;;17.40;31.93
38227;BME280;24026;49.446;8.576;2023-04-26T12:13:12;100609.47;;;17.36;32.19
38227;BME280;24026;49.446;8.576;2023-04-26T12:15:33;100604.13;;;17.31;32.13
38227;BME280;24026;49.446;8.576;2023-04-26T12:17:54;100619.16;;;17.32;32.07
38227;BME280;24026;49.446;8.576;2023-04-26T12:20:15;100612.38;;;17.39;32.13
38227;BME280;24026;49.446;8.576;2023-04-26T12:22:37;100613.41;;;17.44;32.09
38227;BME280;24026;49.446;8.576;2023-04-26T12:25:04;100608.25;;;17.47;32.39
38227;BME280;24026;49.446;8.576;2023-04-26T12:27:25;100608.22;;;17.52;32.42